createdAt,value
2017-09-16T00:02:32.446Z,57.80
2017-09-16T00:05:11.752Z,58.00
2017-09-16T00:07:46.223Z,58.20
2017-09-16T00:10:20.803Z,58.40
2017-09-16T00:12:55.489Z,58.80
2017-09-16T00:15:30.093Z,59.00
2017-09-16T00:18:05.543Z,59.90
2017-09-16T00:20:40.798Z,60.40
2017-09-16T00:23:15.250Z,60.30
2017-09-16T00:25:49.878Z,60.70
2017-09-16T00:28:24.579Z,61.20
2017-09-16T00:30:59.203Z,61.70
2017-09-16T00:33:33.871Z,62.30
2017-09-16T00:36:08.375Z,62.60
2017-09-16T00:38:43.123Z,63.20
2017-09-16T00:41:17.729Z,63.90
2017-09-16T00:43:52.375Z,64.30
2017-09-16T00:46:26.932Z,64.80
2017-09-16T00:49:01.559Z,65.30
2017-09-16T00:51:36.250Z,67.30
2017-09-16T00:54:10.086Z,67.30
2017-09-16T00:56:44.563Z,67.50
2017-09-16T00:59:19.142Z,68.40
2017-09-16T01:01:53.610Z,69.10
2017-09-16T01:04:28.097Z,69.30
2017-09-16T01:07:02.647Z,69.80
2017-09-16T01:09:37.181Z,70.40
2017-09-16T01:12:11.863Z,70.70
2017-09-16T01:14:46.322Z,70.90
2017-09-16T01:17:20.902Z,70.90
2017-09-16T01:19:54.726Z,71.80
2017-09-16T01:22:28.690Z,72.40
2017-09-16T01:25:03.473Z,72.60
2017-09-16T01:27:42.582Z,72.90
2017-09-16T01:30:16.778Z,74.00
2017-09-16T01:32:50.712Z,73.70
2017-09-16T01:35:25.253Z,73.70
2017-09-16T01:37:59.358Z,74.10
2017-09-16T01:40:33.189Z,74.00
2017-09-16T01:43:07.794Z,74.00
2017-09-16T01:45:42.410Z,74.60
2017-09-16T01:48:16.989Z,74.40
2017-09-16T01:50:51.701Z,74.50
2017-09-16T01:53:26.249Z,74.60
2017-09-16T01:56:01.199Z,75.20
2017-09-16T01:58:36.270Z,75.40
2017-09-16T02:01:10.863Z,75.70
2017-09-16T02:03:45.506Z,75.90
2017-09-16T02:06:20.047Z,76.20
2017-09-16T02:08:54.770Z,76.20
2017-09-16T02:11:29.353Z,76.70
2017-09-16T02:14:03.837Z,76.40
2017-09-16T02:16:38.394Z,76.40
2017-09-16T02:19:12.932Z,76.40
2017-09-16T02:21:47.598Z,76.50
2017-09-16T02:24:22.327Z,76.70
2017-09-16T02:26:56.867Z,77.00
2017-09-16T02:29:31.518Z,76.80
2017-09-16T02:32:06.097Z,77.10
2017-09-16T02:34:40.739Z,77.40
2017-09-16T02:37:15.355Z,77.30
2017-09-16T02:39:49.983Z,77.90
2017-09-16T02:42:24.575Z,77.80
2017-09-16T02:44:59.027Z,77.80
2017-09-16T02:47:33.633Z,77.50
2017-09-16T02:50:11.114Z,77.70
2017-09-16T02:52:45.807Z,77.80
2017-09-16T02:55:20.413Z,78.10
2017-09-16T02:57:54.862Z,78.20
2017-09-16T03:00:29.606Z,78.00
2017-09-16T03:03:05.006Z,78.50
2017-09-16T03:05:39.458Z,78.50
2017-09-16T03:08:14.094Z,79.30
2017-09-16T03:10:48.567Z,79.90
2017-09-16T03:13:23.090Z,79.70
2017-09-16T03:15:57.642Z,79.60
2017-09-16T03:18:32.208Z,79.60
2017-09-16T03:21:06.805Z,80.70
2017-09-16T03:23:41.333Z,80.70
2017-09-16T03:26:15.891Z,81.40
2017-09-16T03:28:50.457Z,81.50
2017-09-16T03:31:24.976Z,81.40
2017-09-16T03:33:59.771Z,81.20
2017-09-16T03:36:33.522Z,81.10
2017-09-16T03:39:08.118Z,81.20
2017-09-16T03:41:42.673Z,81.00
2017-09-16T03:44:17.194Z,80.90
2017-09-16T03:46:51.471Z,80.00
2017-09-16T03:49:26.092Z,80.10
2017-09-16T03:52:00.722Z,80.00
2017-09-16T03:54:35.282Z,80.20
2017-09-16T03:57:09.913Z,80.60
2017-09-16T03:59:44.562Z,80.70
2017-09-16T04:02:30.419Z,80.90
2017-09-16T04:07:45.635Z,81.90
2017-09-16T04:10:20.239Z,82.30
2017-09-16T04:12:54.680Z,82.50
2017-09-16T04:15:29.182Z,82.60
2017-09-16T04:18:03.479Z,82.90
2017-09-16T04:20:37.755Z,83.50
2017-09-16T04:23:11.999Z,84.40
2017-09-16T04:25:46.301Z,85.20
2017-09-16T04:28:20.770Z,85.90
2017-09-16T04:30:55.418Z,87.30
2017-09-16T04:33:29.859Z,87.60
2017-09-16T04:36:04.434Z,88.10
2017-09-16T04:38:39.449Z,89.30
2017-09-16T04:41:14.074Z,89.30
2017-09-16T04:43:48.802Z,89.10
2017-09-16T04:46:23.437Z,89.30
2017-09-16T04:48:58.155Z,89.50
2017-09-16T04:51:32.617Z,89.60
2017-09-16T04:54:07.286Z,88.80
2017-09-16T04:56:41.870Z,88.40
2017-09-16T04:59:16.502Z,87.90
2017-09-16T05:01:51.127Z,87.50
2017-09-16T05:04:25.649Z,87.30
2017-09-16T05:07:00.273Z,86.80
2017-09-16T05:09:34.901Z,86.30
2017-09-16T05:12:09.566Z,86.40
2017-09-16T05:14:44.138Z,85.90
2017-09-16T05:17:18.647Z,85.10
2017-09-16T05:19:53.304Z,84.30
2017-09-16T05:22:27.810Z,84.50
2017-09-16T05:25:12.539Z,83.90
2017-09-16T05:27:46.987Z,83.80
2017-09-16T05:30:21.557Z,83.70
2017-09-16T05:32:56.191Z,83.20
2017-09-16T05:35:30.701Z,84.00
2017-09-16T05:38:05.162Z,84.40
2017-09-16T05:40:39.752Z,84.30
2017-09-16T05:43:14.431Z,84.70
2017-09-16T05:45:49.799Z,84.30
2017-09-16T05:48:24.238Z,84.30
2017-09-16T05:50:58.854Z,84.20
2017-09-16T05:53:33.373Z,84.30
2017-09-16T05:56:08.007Z,84.40
2017-09-16T05:58:42.746Z,83.70
2017-09-16T06:01:17.267Z,83.30
2017-09-16T06:03:51.771Z,83.90
2017-09-16T06:06:26.343Z,85.20
2017-09-16T06:09:00.863Z,84.20
2017-09-16T06:11:35.466Z,83.50
2017-09-16T06:14:09.923Z,83.50
2017-09-16T06:16:44.461Z,83.70
2017-09-16T06:19:18.970Z,83.20
2017-09-16T06:21:53.436Z,83.10
2017-09-16T06:24:27.864Z,83.20
2017-09-16T06:27:02.517Z,83.40
2017-09-16T06:29:37.927Z,83.10
2017-09-16T06:32:12.187Z,82.90
2017-09-16T06:34:46.686Z,82.70
2017-09-16T06:37:21.246Z,82.70
2017-09-16T06:39:55.709Z,82.90
2017-09-16T06:42:30.435Z,83.00
2017-09-16T06:45:10.448Z,82.70
2017-09-16T06:47:44.917Z,82.70
2017-09-16T06:50:19.558Z,82.90
2017-09-16T06:52:54.058Z,82.70
2017-09-16T06:55:28.271Z,81.30
2017-09-16T06:58:02.855Z,82.10
2017-09-16T07:00:37.746Z,81.50
2017-09-16T07:03:12.363Z,80.90
2017-09-16T07:05:46.910Z,82.30
2017-09-16T07:08:21.548Z,82.70
2017-09-16T07:10:56.134Z,83.00
2017-09-16T07:13:30.671Z,81.90
2017-09-16T07:16:05.351Z,82.30
2017-09-16T07:18:39.990Z,82.10
2017-09-16T07:21:14.508Z,81.80
2017-09-16T07:23:49.125Z,82.00
2017-09-16T07:26:23.752Z,81.80
2017-09-16T07:28:58.274Z,81.90
2017-09-16T07:31:33.539Z,82.20
2017-09-16T07:34:08.043Z,82.10
2017-09-16T07:36:42.596Z,82.80
2017-09-16T07:39:17.168Z,82.30
2017-09-16T07:41:52.571Z,81.50
2017-09-16T07:44:28.018Z,81.60
2017-09-16T07:47:02.521Z,81.50
2017-09-16T07:49:37.154Z,81.20
2017-09-16T07:52:11.751Z,80.10
2017-09-16T07:54:46.272Z,79.70
2017-09-16T07:57:20.824Z,79.90
2017-09-16T07:59:55.266Z,79.60
2017-09-16T08:02:29.766Z,79.40
2017-09-16T08:07:45.582Z,78.10
2017-09-16T08:10:20.604Z,77.20
2017-09-16T08:12:55.317Z,77.60
2017-09-16T08:15:30.634Z,77.40
2017-09-16T08:18:05.286Z,77.80
2017-09-16T08:20:39.838Z,77.40
2017-09-16T08:23:14.311Z,78.10
2017-09-16T08:25:48.809Z,78.50
2017-09-16T08:28:23.374Z,77.60
2017-09-16T08:30:57.987Z,77.50
2017-09-16T08:33:32.636Z,78.00
2017-09-16T08:36:07.131Z,78.10
2017-09-16T08:38:41.722Z,78.00
2017-09-16T08:41:16.071Z,78.30
2017-09-16T08:43:50.521Z,79.30
2017-09-16T08:46:24.962Z,78.50
2017-09-16T08:48:59.541Z,78.70
2017-09-16T08:51:34.896Z,78.90
2017-09-16T08:54:09.344Z,79.00
2017-09-16T08:56:44.069Z,78.70
2017-09-16T08:59:18.683Z,77.60
2017-09-16T09:01:53.142Z,76.40
2017-09-16T09:04:27.727Z,76.80
2017-09-16T09:07:02.155Z,76.00
2017-09-16T09:09:36.840Z,76.10
2017-09-16T09:12:11.294Z,75.90
2017-09-16T09:14:45.834Z,75.40
2017-09-16T09:17:20.409Z,75.00
2017-09-16T09:19:55.013Z,75.40
2017-09-16T09:22:29.523Z,74.70
2017-09-16T09:25:08.390Z,74.10
2017-09-16T09:27:42.907Z,73.90
2017-09-16T09:30:17.496Z,73.10
2017-09-16T09:32:52.079Z,72.80
2017-09-16T09:35:26.695Z,72.80
2017-09-16T09:38:01.295Z,72.10
2017-09-16T09:40:35.886Z,72.60
2017-09-16T09:43:10.534Z,73.00
2017-09-16T09:45:45.122Z,73.30
2017-09-16T09:48:19.619Z,73.70
2017-09-16T09:50:54.182Z,73.60
2017-09-16T09:53:28.854Z,73.80
2017-09-16T09:56:03.474Z,74.00
2017-09-16T09:58:39.030Z,74.40
2017-09-16T10:01:13.679Z,74.40
2017-09-16T10:03:48.179Z,74.60
2017-09-16T10:06:22.948Z,73.80
2017-09-16T10:08:58.218Z,73.50
2017-09-16T10:11:32.702Z,73.40
2017-09-16T10:14:07.290Z,73.30
2017-09-16T10:16:41.871Z,72.70
2017-09-16T10:19:16.422Z,72.80
2017-09-16T10:21:51.065Z,72.60
2017-09-16T10:24:25.778Z,72.90
2017-09-16T10:27:00.322Z,73.30
2017-09-16T10:29:34.919Z,72.80
2017-09-16T10:32:09.477Z,72.60
2017-09-16T10:34:44.095Z,72.90
2017-09-16T10:37:18.731Z,73.10
2017-09-16T10:39:54.052Z,72.80
2017-09-16T10:42:28.580Z,72.60
2017-09-16T10:45:09.335Z,72.90
2017-09-16T10:47:43.783Z,73.20
2017-09-16T10:50:18.396Z,73.50
2017-09-16T10:52:53.011Z,73.70
2017-09-16T10:55:34.154Z,73.50
2017-09-16T10:58:08.807Z,73.50
2017-09-16T11:00:43.467Z,73.70
2017-09-16T11:03:17.932Z,73.70
2017-09-16T11:05:52.428Z,73.70
2017-09-16T11:08:27.795Z,74.30
2017-09-16T11:11:02.331Z,74.30
2017-09-16T11:13:36.847Z,74.30
2017-09-16T11:16:12.115Z,73.50
2017-09-16T11:18:46.614Z,73.50
2017-09-16T11:21:21.146Z,73.30
2017-09-16T11:23:55.390Z,71.70
2017-09-16T11:26:29.933Z,70.30
2017-09-16T11:29:04.535Z,68.60
2017-09-16T11:31:39.120Z,68.50
2017-09-16T11:34:14.406Z,67.00
2017-09-16T11:36:48.886Z,67.00
2017-09-16T11:39:23.518Z,67.30
2017-09-16T11:41:58.086Z,67.00
2017-09-16T11:44:32.660Z,66.40
2017-09-16T11:47:07.140Z,66.80
2017-09-16T11:49:41.658Z,66.80
2017-09-16T11:52:16.168Z,66.80
2017-09-16T11:54:50.820Z,67.40
2017-09-16T11:57:25.428Z,67.90
2017-09-16T11:59:59.950Z,68.30
2017-09-16T12:02:34.620Z,68.70
2017-09-16T12:05:15.092Z,68.90
2017-09-16T12:07:50.201Z,68.40
2017-09-16T12:10:24.771Z,69.00
2017-09-16T12:12:59.431Z,69.00
2017-09-16T12:15:34.049Z,68.70
2017-09-16T12:18:08.614Z,68.10
2017-09-16T12:20:43.163Z,68.10
2017-09-16T12:23:17.765Z,68.20
2017-09-16T12:25:52.274Z,68.00
2017-09-16T12:28:26.752Z,67.90
2017-09-16T12:31:01.335Z,67.50
2017-09-16T12:33:36.022Z,67.10
2017-09-16T12:36:10.542Z,67.00
2017-09-16T12:38:45.044Z,66.80
2017-09-16T12:41:19.579Z,66.10
2017-09-16T12:43:54.030Z,66.00
2017-09-16T12:46:29.347Z,64.50
2017-09-16T12:49:03.886Z,64.40
2017-09-16T12:51:38.483Z,64.00
2017-09-16T12:54:13.090Z,63.70
2017-09-16T12:56:48.371Z,63.40
2017-09-16T12:59:22.990Z,63.50
2017-09-16T13:01:57.606Z,63.60
2017-09-16T13:04:32.269Z,63.90
2017-09-16T13:07:06.797Z,64.30
2017-09-16T13:09:41.280Z,64.70
2017-09-16T13:12:15.920Z,64.80
2017-09-16T13:14:50.650Z,65.30
2017-09-16T13:17:25.282Z,65.00
2017-09-16T13:19:59.810Z,65.30
2017-09-16T13:22:34.446Z,65.30
2017-09-16T13:25:11.741Z,65.20
2017-09-16T13:27:46.375Z,65.30
2017-09-16T13:30:20.244Z,65.20
2017-09-16T13:32:54.692Z,65.20
2017-09-16T13:35:29.459Z,65.10
2017-09-16T13:38:03.866Z,64.90
2017-09-16T13:40:38.442Z,64.90
2017-09-16T13:43:12.981Z,64.90
2017-09-16T13:45:47.599Z,64.80
2017-09-16T13:48:22.114Z,64.90
2017-09-16T13:50:56.640Z,64.90
2017-09-16T13:53:31.144Z,65.00
2017-09-16T13:56:05.742Z,64.90
2017-09-16T13:58:40.168Z,64.90
2017-09-16T14:01:14.741Z,64.90
2017-09-16T14:03:49.335Z,64.90
2017-09-16T14:06:23.875Z,64.80
2017-09-16T14:08:58.368Z,64.70
2017-09-16T14:11:33.099Z,64.70
2017-09-16T14:14:07.755Z,64.50
2017-09-16T14:16:42.394Z,64.70
2017-09-16T14:19:16.907Z,65.30
2017-09-16T14:21:51.434Z,65.00
2017-09-16T14:24:25.954Z,65.30
2017-09-16T14:27:00.471Z,65.40
2017-09-16T14:29:34.914Z,65.50
2017-09-16T14:32:09.406Z,65.50
2017-09-16T14:34:44.047Z,65.70
2017-09-16T14:37:18.618Z,65.50
2017-09-16T14:39:53.227Z,65.60
2017-09-16T14:42:27.840Z,66.00
2017-09-16T14:45:02.442Z,66.20
2017-09-16T14:47:37.042Z,66.40
2017-09-16T14:50:18.789Z,67.00
2017-09-16T14:52:53.461Z,67.30
2017-09-16T14:55:28.167Z,67.80
2017-09-16T14:58:02.721Z,67.90
2017-09-16T15:00:37.245Z,67.80
2017-09-16T15:03:11.779Z,67.60
2017-09-16T15:05:46.391Z,67.30
2017-09-16T15:08:20.833Z,67.50
2017-09-16T15:10:55.199Z,67.70
2017-09-16T15:13:30.127Z,68.10
2017-09-16T15:16:05.030Z,68.30
2017-09-16T15:18:40.544Z,68.30
2017-09-16T15:21:16.377Z,68.70
2017-09-16T15:23:51.002Z,69.00
2017-09-16T15:26:26.169Z,68.90
2017-09-16T15:29:01.008Z,69.10
2017-09-16T15:31:36.288Z,68.90
2017-09-16T15:34:12.120Z,68.00
2017-09-16T15:36:46.894Z,67.90
2017-09-16T15:39:21.498Z,67.50
2017-09-16T15:41:56.726Z,67.10
2017-09-16T15:44:32.067Z,68.00
2017-09-16T15:47:06.750Z,67.90
2017-09-16T15:49:43.125Z,67.90
2017-09-16T15:52:17.839Z,68.10
2017-09-16T15:54:52.545Z,68.10
2017-09-16T15:57:27.114Z,68.40
2017-09-16T16:00:01.679Z,68.90
2017-09-16T16:02:37.575Z,69.10
2017-09-16T16:05:18.766Z,69.10
2017-09-16T16:07:53.239Z,68.80
2017-09-16T16:10:27.906Z,68.50
2017-09-16T16:13:02.474Z,68.60
2017-09-16T16:15:36.970Z,68.70
2017-09-16T16:18:11.419Z,68.70
2017-09-16T16:20:46.746Z,68.60
2017-09-16T16:23:21.351Z,68.50
2017-09-16T16:25:55.855Z,68.40
2017-09-16T16:28:30.494Z,68.00
2017-09-16T16:31:05.258Z,68.10
2017-09-16T16:33:39.849Z,68.10
2017-09-16T16:36:14.318Z,67.90
2017-09-16T16:38:48.828Z,67.50
2017-09-16T16:41:23.416Z,67.40
2017-09-16T16:43:58.008Z,67.60
2017-09-16T16:46:32.607Z,67.30
2017-09-16T16:49:07.162Z,67.30
2017-09-16T16:51:41.842Z,67.30
2017-09-16T16:54:16.402Z,66.90
2017-09-16T16:56:50.975Z,66.80
2017-09-16T16:59:25.614Z,66.60
2017-09-16T17:02:00.975Z,66.40
2017-09-16T17:04:35.434Z,66.40
2017-09-16T17:07:10.050Z,66.50
2017-09-16T17:09:45.479Z,66.50
2017-09-16T17:12:19.944Z,66.40
2017-09-16T17:14:54.553Z,66.50
2017-09-16T17:17:29.075Z,66.40
2017-09-16T17:20:12.652Z,66.90
2017-09-16T17:22:47.098Z,67.00
2017-09-16T17:25:25.612Z,67.10
2017-09-16T17:28:02.045Z,67.50
2017-09-16T17:30:36.919Z,67.40
2017-09-16T17:33:11.438Z,67.60
2017-09-16T17:35:45.935Z,67.70
2017-09-16T17:38:20.382Z,67.80
2017-09-16T17:40:54.994Z,67.70
2017-09-16T17:46:18.510Z,67.70
2017-09-16T17:48:53.033Z,67.50
2017-09-16T17:51:27.766Z,67.60
2017-09-16T17:54:02.470Z,67.80
2017-09-16T17:56:37.063Z,68.00
2017-09-16T17:59:11.788Z,67.90
2017-09-16T18:01:46.315Z,67.90
2017-09-16T18:04:20.932Z,67.70
2017-09-16T18:06:55.461Z,67.80
2017-09-16T18:09:30.026Z,67.90
2017-09-16T18:12:04.692Z,67.70
2017-09-16T18:14:39.035Z,68.00
2017-09-16T18:17:13.568Z,67.90
2017-09-16T18:19:48.918Z,67.70
2017-09-16T18:22:23.358Z,67.60
2017-09-16T18:24:57.703Z,67.70
2017-09-16T18:27:32.366Z,67.70
2017-09-16T18:30:13.664Z,67.70
2017-09-16T18:32:50.706Z,67.40
2017-09-16T18:35:25.258Z,67.60
2017-09-16T18:37:59.983Z,67.60
2017-09-16T18:40:36.140Z,67.60
2017-09-16T18:43:11.490Z,67.60
2017-09-16T18:45:46.791Z,67.90
2017-09-16T18:48:21.497Z,67.80
2017-09-16T18:50:56.276Z,67.70
2017-09-16T18:53:30.922Z,67.70
2017-09-16T18:56:05.451Z,67.70
2017-09-16T18:58:40.086Z,67.70
2017-09-16T19:01:14.659Z,67.70
2017-09-16T19:03:49.286Z,67.60
2017-09-16T19:06:23.914Z,67.50
2017-09-16T19:08:58.535Z,67.80
2017-09-16T19:11:33.121Z,67.50
2017-09-16T19:14:07.570Z,67.40
2017-09-16T19:16:42.881Z,67.60
2017-09-16T19:19:17.346Z,67.60
2017-09-16T19:21:51.889Z,67.50
2017-09-16T19:24:26.220Z,67.30
2017-09-16T19:27:00.598Z,67.40
2017-09-16T19:29:35.114Z,67.20
2017-09-16T19:32:09.458Z,67.00
2017-09-16T19:34:43.882Z,67.00
2017-09-16T19:37:18.509Z,67.10
2017-09-16T19:39:53.163Z,67.00
2017-09-16T19:42:27.730Z,66.90
2017-09-16T19:45:02.268Z,66.80
2017-09-16T19:47:36.864Z,66.70
2017-09-16T19:50:12.338Z,66.80
2017-09-16T19:52:46.978Z,66.60
2017-09-16T19:55:21.582Z,66.90
2017-09-16T19:57:56.050Z,66.70
2017-09-16T20:00:30.594Z,66.80
2017-09-16T20:03:05.046Z,66.80
2017-09-16T20:05:39.543Z,66.80
2017-09-16T20:08:14.144Z,66.80
2017-09-16T20:10:48.767Z,66.80
2017-09-16T20:13:23.375Z,67.00
2017-09-16T20:15:58.047Z,67.00
2017-09-16T20:18:33.315Z,67.00
2017-09-16T20:21:07.959Z,67.00
2017-09-16T20:23:42.562Z,67.30
2017-09-16T20:26:17.236Z,67.30
2017-09-16T20:28:51.815Z,67.30
2017-09-16T20:31:26.466Z,67.30
2017-09-16T20:34:01.842Z,67.30
2017-09-16T20:36:36.668Z,67.10
2017-09-16T20:39:11.313Z,67.40
2017-09-16T20:41:45.843Z,67.30
2017-09-16T20:44:20.490Z,67.40
2017-09-16T20:46:55.072Z,67.30
2017-09-16T20:49:30.352Z,67.30
2017-09-16T20:52:04.827Z,67.30
2017-09-16T20:54:39.355Z,67.20
2017-09-16T20:57:13.906Z,67.20
2017-09-16T20:59:48.462Z,67.20
2017-09-16T21:02:23.103Z,67.20
2017-09-16T21:04:57.882Z,67.20
2017-09-16T21:07:32.566Z,66.90
2017-09-16T21:10:14.992Z,66.70
2017-09-16T21:12:50.258Z,66.60
2017-09-16T21:15:25.221Z,66.40
2017-09-16T21:17:59.822Z,66.80
2017-09-16T21:20:34.385Z,66.70
2017-09-16T21:23:09.065Z,66.50
2017-09-16T21:25:43.690Z,66.40
2017-09-16T21:28:18.272Z,66.30
2017-09-16T21:30:52.819Z,66.40
2017-09-16T21:33:27.564Z,66.50
2017-09-16T21:36:02.208Z,66.20
2017-09-16T21:38:36.459Z,66.40
2017-09-16T21:41:11.139Z,66.30
2017-09-16T21:43:46.055Z,66.40
2017-09-16T21:46:20.543Z,66.70
2017-09-16T21:48:55.735Z,66.60
2017-09-16T21:51:30.256Z,66.50
2017-09-16T21:54:05.027Z,66.40
2017-09-16T21:56:39.306Z,66.40
2017-09-16T21:59:13.736Z,66.40
2017-09-16T22:01:48.991Z,66.40
2017-09-16T22:04:23.637Z,66.30
2017-09-16T22:06:58.303Z,66.50
2017-09-16T22:09:32.914Z,66.40
2017-09-16T22:12:07.503Z,66.40
2017-09-16T22:14:42.082Z,66.50
2017-09-16T22:17:16.911Z,66.30
2017-09-16T22:19:51.400Z,66.40
2017-09-16T22:22:26.279Z,66.50
2017-09-16T22:25:00.930Z,66.60
2017-09-16T22:27:35.514Z,66.60
2017-09-16T22:30:11.247Z,66.50
2017-09-16T22:32:45.765Z,66.60
2017-09-16T22:35:20.175Z,66.50
2017-09-16T22:37:54.941Z,66.50
2017-09-16T22:40:29.412Z,66.60
2017-09-16T22:43:04.076Z,66.80
2017-09-16T22:45:38.757Z,66.80
2017-09-16T22:48:13.516Z,67.10
2017-09-16T22:50:47.985Z,67.10
2017-09-16T22:53:22.531Z,67.40
2017-09-16T22:55:57.164Z,67.70
2017-09-16T22:58:31.806Z,68.00
2017-09-16T23:01:06.481Z,68.00
2017-09-16T23:03:41.858Z,67.80
2017-09-16T23:06:16.543Z,67.70
2017-09-16T23:08:51.194Z,67.70
2017-09-16T23:11:25.702Z,67.80
2017-09-16T23:14:00.342Z,67.70
2017-09-16T23:16:34.915Z,67.70
2017-09-16T23:19:09.404Z,68.00
2017-09-16T23:21:43.967Z,68.00
2017-09-16T23:24:18.447Z,67.60
2017-09-16T23:26:53.014Z,67.40
2017-09-16T23:29:27.721Z,66.80
2017-09-16T23:32:02.702Z,67.20
2017-09-16T23:34:37.395Z,67.00
2017-09-16T23:37:12.058Z,66.80
2017-09-16T23:39:46.601Z,67.00
2017-09-16T23:42:21.206Z,67.30
2017-09-16T23:44:55.675Z,67.10
2017-09-16T23:47:30.248Z,67.10
2017-09-16T23:50:13.251Z,66.90
2017-09-16T23:52:47.797Z,66.70
2017-09-16T23:55:23.067Z,66.40
2017-09-16T23:57:57.546Z,66.40
